Time;durP1;ratioP1;P1;durP2;ratioP2;P2;SDS_P1;SDS_P2;PMS_P1;PMS_P2;Temp;Humidity;BMP_temperature;BMP_pressure;BME280_temperature;BME280_humidity;BME280_pressure;Samples;Min_cycle;Max_cycle;Signal;HPM_P1;HPM_P2
2022/03/22 00:00:18;;;;;;;20.05;9.75;;;;;;;2.55;58.22;97907.84;2077783;28;20549;-60
2022/03/22 00:01:21;;;;;;;28.95;10.43;;;;;;;2.62;58.21;97913.75;2078110;28;20204;-60
2022/03/22 00:02:23;;;;;;;21.08;10.13;;;;;;;2.58;58.27;97907.75;2075535;28;20201;-60
2022/03/22 00:03:25;;;;;;;24.15;10.68;;;;;;;2.48;58.66;97910.53;2076981;28;20693;-60
2022/03/22 00:04:31;;;;;;;16.58;9.15;;;;;;;2.50;58.09;97906.19;2079949;28;20727;-60
2022/03/22 00:05:33;;;;;;;20.50;9.80;;;;;;;2.47;58.45;97909.69;2073774;28;20284;-60
2022/03/22 00:06:35;;;;;;;20.73;10.40;;;;;;;2.44;58.42;97906.28;2077447;28;20617;-60
2022/03/22 00:07:37;;;;;;;21.83;10.52;;;;;;;2.48;58.20;97911.38;2075447;28;20209;-60
2022/03/22 00:08:38;;;;;;;17.58;9.70;;;;;;;2.44;58.60;97912.31;2074940;28;20194;-60
2022/03/22 00:09:39;;;;;;;18.88;9.85;;;;;;;2.55;58.59;97905.25;2076747;28;20205;-60
2022/03/22 00:10:41;;;;;;;21.60;10.43;;;;;;;2.56;58.66;97916.44;2077760;28;20236;-60
2022/03/22 00:11:42;;;;;;;19.38;10.07;;;;;;;2.56;58.90;97909.53;2077615;28;20212;-60
2022/03/22 00:12:44;;;;;;;16.70;9.90;;;;;;;2.60;58.82;97905.16;2077217;28;20197;-60
2022/03/22 00:13:46;;;;;;;16.98;9.43;;;;;;;2.68;59.05;97905.03;2078295;28;20197;-60
2022/03/22 00:14:48;;;;;;;17.00;10.20;;;;;;;2.65;59.40;97905.09;2075916;28;20217;-60
2022/03/22 00:16:09;;;;;;;19.55;10.98;;;;;;;2.56;59.46;97901.75;2076439;28;20260;-60
2022/03/22 00:17:31;;;;;;;17.75;9.95;;;;;;;2.70;58.87;97911.03;2078914;28;20806;-60
2022/03/22 00:18:32;;;;;;;20.15;10.40;;;;;;;2.67;58.65;97904.19;2077956;28;20197;-60
2022/03/22 00:19:34;;;;;;;18.45;10.60;;;;;;;2.66;58.42;97911.97;2077667;28;20227;-60
2022/03/22 00:20:35;;;;;;;21.38;10.30;;;;;;;2.53;58.79;97906.16;2075430;28;20220;-60
2022/03/22 00:21:36;;;;;;;23.98;11.07;;;;;;;2.51;59.05;97911.34;2077471;28;20194;-60
2022/03/22 00:22:39;;;;;;;19.05;10.43;;;;;;;2.35;59.59;97904.69;2076450;28;20193;-59
2022/03/22 00:23:41;;;;;;;22.00;11.35;;;;;;;2.40;59.41;97902.91;2076006;28;20190;-59
2022/03/22 00:24:42;;;;;;;20.70;9.43;;;;;;;2.32;59.38;97902.16;2076234;28;20209;-60
2022/03/22 00:25:44;;;;;;;19.52;9.95;;;;;;;2.20;60.02;97905.78;2075590;28;20581;-60
2022/03/22 00:26:45;;;;;;;18.25;10.40;;;;;;;2.05;61.20;97906.84;2078029;28;20205;-60
2022/03/22 00:27:51;;;;;;;27.75;12.20;;;;;;;1.93;61.51;97907.03;2080225;28;20194;-59
2022/03/22 00:28:53;;;;;;;18.33;10.43;;;;;;;1.99;61.38;97906.94;2077425;28;20656;-60
2022/03/22 00:29:54;;;;;;;20.33;10.30;;;;;;;1.97;61.46;97903.53;2077429;28;20205;-59
2022/03/22 00:30:56;;;;;;;20.90;10.15;;;;;;;1.99;61.10;97906.94;2077605;28;20237;-60
2022/03/22 00:31:58;;;;;;;17.40;9.27;;;;;;;2.03;61.19;97905.16;2076138;28;20212;-60
2022/03/22 00:33:03;;;;;;;20.30;10.90;;;;;;;2.05;61.07;97899.09;2076374;28;20197;-60
2022/03/22 00:34:05;;;;;;;16.33;10.20;;;;;;;2.02;61.04;97904.31;2076314;28;20209;-60
2022/03/22 00:35:07;;;;;;;17.05;9.55;;;;;;;2.09;60.71;97900.75;2078955;28;20197;-60
2022/03/22 00:36:10;;;;;;;22.55;10.65;;;;;;;2.11;60.65;97906.75;2075626;28;20230;-60
2022/03/22 00:37:14;;;;;;;19.20;10.13;;;;;;;2.00;60.56;97900.03;2076686;28;20262;-60
2022/03/22 00:38:16;;;;;;;22.98;10.52;;;;;;;1.99;61.07;97904.34;2077952;28;20201;-60
2022/03/22 00:39:18;;;;;;;19.45;10.10;;;;;;;1.91;61.58;97898.44;2077882;28;20279;-59
2022/03/22 00:40:27;;;;;;;23.30;11.57;;;;;;;1.90;61.89;97909.63;2075378;28;20204;-60
2022/03/22 00:41:28;;;;;;;22.75;10.90;;;;;;;1.71;62.66;97894.38;2075225;28;20212;-60
2022/03/22 00:42:29;;;;;;;18.90;11.55;;;;;;;1.76;62.50;97896.91;2078474;28;20700;-59
2022/03/22 00:43:34;;;;;;;20.75;11.90;;;;;;;1.75;62.70;97900.38;2076607;28;20223;-60
2022/03/22 00:44:38;;;;;;;19.33;9.90;;;;;;;1.64;62.75;97905.66;2076954;28;20247;-60
2022/03/22 00:45:41;;;;;;;20.58;11.05;;;;;;;1.33;63.49;97894.84;2075724;28;20752;-60
2022/03/22 00:46:42;;;;;;;17.52;10.23;;;;;;;1.25;64.36;97902.66;2077062;28;20196;-59
2022/03/22 00:47:49;;;;;;;19.48;10.75;;;;;;;1.33;63.93;97895.72;2077495;28;20201;-60
2022/03/22 00:48:50;;;;;;;20.95;11.65;;;;;;;1.38;63.96;97893.06;2076655;28;20223;-60
2022/03/22 00:49:52;;;;;;;22.77;11.57;;;;;;;1.38;63.94;97898.25;2077543;28;20207;-60
2022/03/22 00:50:54;;;;;;;30.95;12.40;;;;;;;1.32;63.89;97888.84;2077670;28;20234;-60
2022/03/22 00:51:55;;;;;;;28.73;14.23;;;;;;;1.38;63.48;97893.91;2077000;28;20198;-60
2022/03/22 00:52:57;;;;;;;25.15;13.70;;;;;;;1.44;63.31;97884.41;2075929;28;20202;-60
2022/03/22 00:54:02;;;;;;;26.02;14.93;;;;;;;1.52;63.22;97891.16;2076549;28;20193;-60
2022/03/22 00:55:05;;;;;;;29.65;15.32;;;;;;;1.48;62.96;97883.50;2077609;28;20200;-60
2022/03/22 00:56:08;;;;;;;33.40;14.82;;;;;;;1.48;62.93;97894.66;2077665;28;20225;-59
2022/03/22 00:57:09;;;;;;;25.05;13.13;;;;;;;1.50;63.09;97894.66;2079448;28;20580;-59
2022/03/22 00:58:11;;;;;;;26.55;13.43;;;;;;;1.53;63.02;97887.72;2076624;28;20203;-59
2022/03/22 01:00:34;;;;;;;22.75;12.13;;;;;;;1.54;62.72;97898.91;2075514;28;20578;-59
2022/03/22 01:01:36;;;;;;;23.98;11.73;;;;;;;1.56;62.45;97897.16;2077179;28;20212;-59
2022/03/22 01:02:44;;;;;;;32.28;12.85;;;;;;;1.49;62.92;97888.66;2076899;28;20190;-59
2022/03/22 01:03:46;;;;;;;24.15;12.02;;;;;;;1.42;63.11;97883.56;2075561;28;20621;-59
2022/03/22 01:04:47;;;;;;;21.05;11.70;;;;;;;1.37;63.24;97887.06;2078429;28;20201;-59
2022/03/22 01:05:50;;;;;;;21.25;11.60;;;;;;;1.30;63.72;97884.56;2079280;28;20231;-59
2022/03/22 01:06:53;;;;;;;19.52;11.25;;;;;;;1.35;63.68;97883.66;2074502;28;20616;-59
2022/03/22 01:08:06;;;;;;;20.52;12.10;;;;;;;1.32;63.62;97887.97;2075176;28;20197;-59
2022/03/22 01:09:10;;;;;;;24.73;12.45;;;;;;;1.29;63.72;97886.28;2075394;28;20204;-59
2022/03/22 01:10:14;;;;;;;23.88;11.77;;;;;;;1.34;63.79;97883.66;2079202;28;20197;-59
2022/03/22 01:11:15;;;;;;;20.00;10.75;;;;;;;1.25;64.00;97889.75;2080419;28;20554;-59
2022/03/22 01:12:17;;;;;;;32.72;11.88;;;;;;;1.18;64.18;97894.16;2076833;28;20194;-59
2022/03/22 01:13:23;;;;;;;23.42;13.02;;;;;;;1.26;63.86;97880.31;2076267;28;20198;-59
2022/03/22 01:14:27;;;;;;;31.85;12.73;;;;;;;1.21;64.17;97877.75;2074793;28;20201;-59
2022/03/22 01:15:33;;;;;;;20.50;11.52;;;;;;;1.15;64.20;97888.16;2076493;28;20194;-59
2022/03/22 01:16:34;;;;;;;26.25;12.75;;;;;;;1.07;64.48;97893.41;2076453;28;20190;-59
2022/03/22 01:17:37;;;;;;;25.15;10.73;;;;;;;1.11;64.45;97883.91;2078023;28;20221;-59
2022/03/22 01:18:39;;;;;;;22.85;11.60;;;;;;;1.13;64.34;97887.31;2078175;28;20201;-59
2022/03/22 01:19:40;;;;;;;22.13;11.75;;;;;;;1.08;64.46;97887.38;2077609;28;20197;-59
2022/03/22 01:20:46;;;;;;;25.17;11.77;;;;;;;1.04;65.02;97884.84;2076828;28;20221;-59
2022/03/22 01:21:49;;;;;;;21.52;10.93;;;;;;;0.99;65.27;97887.47;2076934;28;20243;-59
2022/03/22 01:22:51;;;;;;;26.70;12.65;;;;;;;1.01;65.08;97883.16;2076145;28;20223;-59
2022/03/22 01:23:52;;;;;;;33.75;12.32;;;;;;;1.04;64.62;97887.41;2074358;28;20205;-59
2022/03/22 01:24:54;;;;;;;22.10;11.82;;;;;;;1.06;64.63;97875.34;2076683;28;20201;-59
2022/03/22 01:25:59;;;;;;;21.73;11.70;;;;;;;1.08;64.63;97874.47;2077247;28;20220;-59
2022/03/22 01:27:01;;;;;;;19.98;11.45;;;;;;;1.02;64.95;97878.84;2076846;28;20659;-59
2022/03/22 01:28:08;;;;;;;17.88;10.60;;;;;;;1.01;64.40;97877.13;2079627;28;20197;-58
2022/03/22 01:29:11;;;;;;;21.77;12.05;;;;;;;1.00;64.48;97873.72;2074366;28;20209;-59
2022/03/22 01:30:15;;;;;;;23.40;11.23;;;;;;;0.92;65.17;97884.09;2075791;28;20197;-59
2022/03/22 01:31:17;;;;;;;26.35;12.68;;;;;;;0.87;64.98;97875.53;2077507;28;20201;-59
2022/03/22 01:32:18;;;;;;;23.08;12.13;;;;;;;0.99;64.69;97878.00;2077592;28;20600;-59
2022/03/22 01:33:20;;;;;;;18.73;10.68;;;;;;;1.05;64.90;97878.81;2080580;28;20193;-59
2022/03/22 01:34:22;;;;;;;23.45;11.48;;;;;;;1.04;64.95;97875.38;2076228;28;20208;-58
2022/03/22 01:35:25;;;;;;;21.10;11.88;;;;;;;1.02;64.92;97874.56;2077608;28;20193;-59
2022/03/22 01:36:31;;;;;;;20.35;10.75;;;;;;;0.99;64.91;97874.56;2076714;28;20196;-59
2022/03/22 01:37:33;;;;;;;24.08;11.93;;;;;;;0.94;65.23;97871.16;2077946;28;20544;-59
2022/03/22 01:38:36;;;;;;;22.63;11.95;;;;;;;0.91;65.55;97869.47;2075171;28;20212;-58
2022/03/22 01:39:37;;;;;;;23.30;11.80;;;;;;;0.91;65.66;97868.63;2076645;28;20540;-59
2022/03/22 01:40:39;;;;;;;27.27;12.15;;;;;;;0.92;65.36;97867.75;2078888;28;20228;-58
2022/03/22 01:41:41;;;;;;;19.63;11.75;;;;;;;0.87;65.52;97869.53;2077762;28;20216;-59
2022/03/22 01:42:42;;;;;;;28.13;11.95;;;;;;;0.74;65.74;97864.47;2075189;28;20198;-59
2022/03/22 01:43:44;;;;;;;26.70;12.95;;;;;;;0.69;66.26;97865.41;2074562;28;20546;-59
2022/03/22 01:44:45;;;;;;;24.08;12.70;;;;;;;0.77;65.98;97863.63;2076153;28;20201;-58
2022/03/22 01:45:48;;;;;;;23.88;12.15;;;;;;;0.77;65.86;97867.03;2074265;28;20237;-58
2022/03/22 01:46:51;;;;;;;22.05;11.80;;;;;;;0.71;66.05;97868.84;2074624;28;20201;-58
2022/03/22 01:48:00;;;;;;;23.88;11.73;;;;;;;0.73;66.16;97860.22;2077075;28;20561;-59
2022/03/22 01:49:03;;;;;;;19.27;11.18;;;;;;;0.75;66.18;97867.94;2077095;28;20707;-59
2022/03/22 01:50:07;;;;;;;20.40;11.18;;;;;;;0.77;66.14;97864.47;2076455;28;20751;-59
2022/03/22 01:51:10;;;;;;;22.92;11.20;;;;;;;0.75;66.04;97866.22;2076402;28;20225;-58
2022/03/22 01:52:16;;;;;;;26.65;11.77;;;;;;;0.85;65.83;97866.97;2076045;28;20292;-59
2022/03/22 01:53:18;;;;;;;22.08;11.38;;;;;;;0.84;65.51;97864.41;2074218;28;20201;-59
2022/03/22 01:54:20;;;;;;;22.77;11.70;;;;;;;0.78;65.63;97855.88;2075945;28;20678;-58
2022/03/22 01:55:23;;;;;;;28.80;11.70;;;;;;;0.83;65.38;97860.97;2076782;28;20689;-58
2022/03/22 01:56:25;;;;;;;22.23;12.85;;;;;;;0.83;65.17;97854.97;2074762;28;20197;-59
2022/03/22 01:57:30;;;;;;;27.05;12.02;;;;;;;0.68;65.78;97851.66;2077224;28;20205;-59
2022/03/22 01:58:31;;;;;;;22.23;11.18;;;;;;;0.74;65.85;97856.75;2077355;28;20645;-58
2022/03/22 01:59:33;;;;;;;24.80;11.25;;;;;;;0.62;65.83;97851.72;2075974;28;20285;-59
2022/03/22 02:00:35;;;;;;;22.02;11.75;;;;;;;0.62;66.15;97854.28;2072188;28;20225;-59
2022/03/22 02:05:55;;;;;;;30.50;11.85;;;;;;;0.58;66.58;97850.03;2074043;28;20863;-59
2022/03/22 02:06:58;;;;;;;23.00;12.30;;;;;;;0.49;67.05;97848.41;2077418;28;20197;-59
2022/03/22 02:08:01;;;;;;;23.63;12.60;;;;;;;0.58;66.52;97848.31;2077005;28;20197;-59
2022/03/22 02:09:03;;;;;;;24.98;12.85;;;;;;;0.58;66.58;97852.59;2080954;28;20193;-59
2022/03/22 02:10:06;;;;;;;22.55;11.27;;;;;;;0.43;67.26;97848.44;2077882;28;20197;-58
2022/03/22 02:11:07;;;;;;;24.55;10.93;;;;;;;0.47;67.18;97838.97;2077159;28;20271;-59
2022/03/22 02:12:09;;;;;;;20.73;11.82;;;;;;;0.48;67.35;97844.09;2075608;28;20205;-59
2022/03/22 02:13:11;;;;;;;24.50;11.90;;;;;;;0.55;66.88;97842.34;2076579;28;20553;-59
2022/03/22 02:14:13;;;;;;;21.83;12.05;;;;;;;0.65;66.30;97838.81;2075164;28;20209;-58
2022/03/22 02:15:15;;;;;;;21.65;12.60;;;;;;;0.63;66.27;97831.94;2078818;28;20200;-59
2022/03/22 02:16:16;;;;;;;20.40;11.60;;;;;;;0.66;65.93;97843.06;2078898;28;20192;-59
2022/03/22 02:17:18;;;;;;;21.50;12.45;;;;;;;0.67;65.90;97842.22;2076650;28;20212;-59
2022/03/22 02:18:19;;;;;;;22.90;12.43;;;;;;;0.57;66.33;97841.44;2077210;28;20201;-59
2022/03/22 02:19:21;;;;;;;22.50;12.65;;;;;;;0.53;66.62;97836.31;2073850;28;20209;-59
2022/03/22 02:20:23;;;;;;;19.25;12.20;;;;;;;0.59;66.70;97836.28;2076839;28;20198;-58
2022/03/22 02:21:27;;;;;;;24.95;12.45;;;;;;;0.35;67.10;97827.03;2074769;28;20527;-59
2022/03/22 02:22:35;;;;;;;28.13;11.98;;;;;;;0.35;67.53;97837.34;2076761;28;20225;-59
2022/03/22 02:23:49;;;;;;;20.75;12.65;;;;;;;0.36;67.42;97836.47;2076449;28;20805;-59
2022/03/22 02:24:50;;;;;;;19.52;11.48;;;;;;;0.36;67.51;97842.50;2078399;28;20204;-59
2022/03/22 02:25:53;;;;;;;22.52;12.23;;;;;;;0.23;68.03;97843.44;2075453;28;20244;-59
2022/03/22 02:26:55;;;;;;;34.72;13.45;;;;;;;0.32;67.68;97845.13;2077710;28;20196;-59
2022/03/22 02:27:57;;;;;;;26.60;12.90;;;;;;;0.30;67.35;97845.13;2079592;28;20197;-59
2022/03/22 02:28:59;;;;;;;21.25;12.50;;;;;;;0.31;67.79;97844.22;2078430;28;20204;-59
2022/03/22 02:30:01;;;;;;;23.17;12.40;;;;;;;0.33;68.06;97846.81;2075330;28;20563;-59
2022/03/22 02:31:02;;;;;;;22.33;12.05;;;;;;;0.39;67.67;97844.16;2078325;28;20229;-59
2022/03/22 02:32:07;;;;;;;22.80;13.23;;;;;;;0.35;68.11;97847.66;2075486;28;20258;-59
2022/03/22 02:33:09;;;;;;;24.95;13.85;;;;;;;0.35;67.76;97848.53;2075655;28;20560;-59
2022/03/22 02:34:10;;;;;;;25.83;12.60;;;;;;;0.30;67.98;97847.69;2075949;28;20569;-59
2022/03/22 02:35:12;;;;;;;30.60;12.70;;;;;;;0.26;68.35;97847.75;2076647;28;20209;-60
2022/03/22 02:36:13;;;;;;;25.60;12.00;;;;;;;0.23;68.61;97843.44;2076183;28;20194;-59
2022/03/22 02:37:15;;;;;;;30.27;12.88;;;;;;;0.23;68.11;97842.59;2076210;28;20193;-59
2022/03/22 02:38:17;;;;;;;22.13;13.75;;;;;;;0.23;68.25;97846.03;2076185;28;20198;-59
2022/03/22 02:39:18;;;;;;;25.42;11.90;;;;;;;0.23;68.05;97840.88;2079425;28;20197;-58
2022/03/22 02:40:20;;;;;;;23.30;12.85;;;;;;;0.29;68.24;97842.53;2075782;28;20548;-59
2022/03/22 02:41:27;;;;;;;24.88;12.27;;;;;;;0.35;67.54;97845.94;2076642;28;20676;-59
2022/03/22 02:42:29;;;;;;;26.73;13.40;;;;;;;0.35;67.45;97843.38;2078375;28;20198;-59
2022/03/22 02:43:31;;;;;;;23.33;11.75;;;;;;;0.28;67.61;97838.28;2076182;28;20201;-59
2022/03/22 02:44:33;;;;;;;26.58;12.88;;;;;;;0.23;68.18;97848.59;2076210;28;20205;-58
2022/03/22 02:45:34;;;;;;;29.98;13.10;;;;;;;0.22;68.60;97844.31;2076102;28;20679;-59
2022/03/22 02:46:37;;;;;;;28.95;12.00;;;;;;;0.13;69.02;97842.66;2077404;28;20217;-58
2022/03/22 02:47:39;;;;;;;23.40;12.65;;;;;;;0.13;69.10;97852.97;2076932;28;20200;-59
2022/03/22 02:48:42;;;;;;;28.75;13.05;;;;;;;0.05;69.15;97836.72;2076459;28;20276;-59
2022/03/22 02:49:43;;;;;;;25.98;12.35;;;;;;;0.14;69.04;97846.97;2074516;28;20280;-59
2022/03/22 02:50:45;;;;;;;27.63;13.05;;;;;;;0.15;68.57;97845.22;2076119;28;20221;-59
2022/03/22 02:51:46;;;;;;;28.88;14.82;;;;;;;0.26;68.50;97850.31;2076991;28;20193;-59
2022/03/22 02:52:48;;;;;;;22.55;12.52;;;;;;;0.19;68.59;97846.91;2076942;28;20290;-59
2022/03/22 02:53:51;;;;;;;21.20;12.00;;;;;;;0.15;68.84;97847.81;2075385;28;20209;-59
2022/03/22 02:54:52;;;;;;;26.77;13.45;;;;;;;0.23;68.42;97848.59;2075439;28;20205;-59
2022/03/22 02:55:54;;;;;;;23.90;12.38;;;;;;;0.08;68.19;97853.88;2076745;28;20712;-59
2022/03/22 02:56:55;;;;;;;23.88;12.25;;;;;;;-0.04;68.93;97849.66;2076872;28;20793;-59
2022/03/22 02:57:57;;;;;;;23.02;13.75;;;;;;;-0.08;69.22;97851.41;2077835;28;20205;-59
2022/03/22 02:58:59;;;;;;;24.15;13.27;;;;;;;-0.03;69.03;97854.81;2079660;28;20196;-58
2022/03/22 03:00:11;;;;;;;23.13;13.07;;;;;;;0.03;68.96;97853.06;2075597;28;20197;-59
2022/03/22 03:01:13;;;;;;;23.17;13.43;;;;;;;0.12;68.99;97853.84;2076945;28;20228;-59
2022/03/22 03:02:15;;;;;;;23.63;12.32;;;;;;;0.06;69.01;97856.47;2076479;28;20235;-58
2022/03/22 03:03:22;;;;;;;23.63;12.52;;;;;;;0.11;68.97;97854.69;2075419;28;20204;-59
2022/03/22 03:04:24;;;;;;;26.85;11.75;;;;;;;-0.01;69.53;97857.38;2077546;28;20212;-59
2022/03/22 03:05:25;;;;;;;25.13;12.23;;;;;;;0.06;69.19;97858.16;2076811;28;20213;-59
2022/03/22 03:06:28;;;;;;;22.98;12.82;;;;;;;0.06;69.08;97853.03;2078336;28;20213;-59
2022/03/22 03:07:30;;;;;;;23.30;11.60;;;;;;;0.08;69.13;97862.47;2076371;28;20208;-59
2022/03/22 03:08:32;;;;;;;26.15;13.45;;;;;;;0.06;69.03;97859.06;2074163;28;20547;-59
2022/03/22 03:09:33;;;;;;;18.98;12.38;;;;;;;-0.14;69.47;97856.59;2076266;28;20208;-59
2022/03/22 03:10:34;;;;;;;29.98;12.50;;;;;;;-0.02;69.42;97865.94;2076696;28;20844;-59
2022/03/22 03:11:36;;;;;;;32.90;12.98;;;;;;;0.15;68.43;97858.97;2077643;28;20287;-59
2022/03/22 03:12:38;;;;;;;21.20;12.35;;;;;;;-0.01;68.88;97852.22;2073207;28;20194;-59
2022/03/22 03:14:59;;;;;;;18.33;10.80;;;;;;;-0.17;69.45;97855.78;2072442;28;20883;-59
2022/03/22 03:16:01;;;;;;;20.67;11.63;;;;;;;-0.04;68.92;97854.81;2073852;28;20575;-59
2022/03/22 03:17:02;;;;;;;25.83;12.35;;;;;;;-0.21;69.20;97855.78;2075456;28;20209;-59
2022/03/22 03:18:04;;;;;;;20.58;12.20;;;;;;;-0.13;69.38;97853.16;2077358;28;20567;-59
2022/03/22 03:19:06;;;;;;;22.58;12.50;;;;;;;-0.24;69.19;97845.47;2075068;28;20192;-58
2022/03/22 03:20:09;;;;;;;36.17;13.20;;;;;;;-0.20;69.36;97859.19;2079092;28;20208;-59
2022/03/22 03:21:11;;;;;;;25.50;12.77;;;;;;;-0.36;70.14;97855.84;2074078;28;20229;-59
2022/03/22 03:22:12;;;;;;;28.08;12.43;;;;;;;-0.21;69.61;97860.94;2076143;28;20205;-59
2022/03/22 03:23:13;;;;;;;19.98;11.38;;;;;;;-0.14;69.21;97855.72;2075595;28;20197;-59
2022/03/22 03:24:15;;;;;;;22.30;12.70;;;;;;;-0.07;69.00;97858.25;2078698;28;20636;-59
2022/03/22 03:25:18;;;;;;;21.52;11.93;;;;;;;-0.07;68.40;97854.84;2075266;28;20776;-58
2022/03/22 03:26:19;;;;;;;24.85;12.75;;;;;;;-0.06;68.02;97865.13;2074205;28;20726;-59
2022/03/22 03:27:22;;;;;;;20.75;11.27;;;;;;;-0.08;68.33;97863.41;2073462;28;20233;-58
2022/03/22 03:28:23;;;;;;;28.85;12.98;;;;;;;-0.14;68.30;97856.59;2076118;28;20212;-59
2022/03/22 03:29:25;;;;;;;23.73;11.70;;;;;;;-0.16;68.52;97862.63;2076839;28;20715;-59
2022/03/22 03:30:26;;;;;;;23.88;12.52;;;;;;;-0.15;68.67;97859.19;2076001;28;20207;-58
2022/03/22 03:31:28;;;;;;;23.08;11.50;;;;;;;-0.05;68.35;97866.00;2077747;28;20835;-58
2022/03/22 03:32:30;;;;;;;23.20;11.95;;;;;;;-0.11;67.91;97848.00;2079933;28;20194;-59
2022/03/22 03:33:32;;;;;;;22.27;12.15;;;;;;;-0.02;68.24;97861.69;2077176;28;20205;-58
2022/03/22 03:34:34;;;;;;;17.05;11.00;;;;;;;-0.09;68.85;97864.28;2076699;28;20227;-58
2022/03/22 03:35:35;;;;;;;30.08;13.40;;;;;;;-0.15;68.81;97856.63;2077457;28;20224;-58
2022/03/22 03:36:37;;;;;;;25.73;11.65;;;;;;;-0.26;69.57;97866.97;2077745;28;20200;-59
2022/03/22 03:37:42;;;;;;;23.10;10.52;;;;;;;-0.38;70.36;97865.31;2076454;28;20232;-59
2022/03/22 03:38:48;;;;;;;23.88;11.60;;;;;;;-0.32;70.04;97870.41;2078050;28;20726;-60
2022/03/22 03:39:52;;;;;;;18.92;11.15;;;;;;;-0.26;69.67;97867.81;2071192;28;20198;-61
2022/03/22 03:42:16;;;;;;;23.08;11.65;;;;;;;-0.34;69.60;97869.56;2078135;28;20205;-60
2022/03/22 03:43:17;;;;;;;21.90;11.75;;;;;;;-0.41;69.58;97862.78;2077803;28;20202;-60
2022/03/22 03:47:07;;;;;;;22.90;12.75;;;;;;;-0.40;70.34;97869.63;2063803;28;20260;-60
2022/03/22 03:48:09;;;;;;;24.15;11.80;;;;;;;-0.36;70.46;97865.31;2076018;28;20205;-60
2022/03/22 03:49:10;;;;;;;23.58;13.18;;;;;;;-0.41;70.47;97867.91;2078994;28;20220;-59
2022/03/22 03:50:12;;;;;;;22.15;12.15;;;;;;;-0.40;70.51;97867.03;2078191;28;20202;-60
2022/03/22 03:51:14;;;;;;;28.90;12.15;;;;;;;-0.35;70.13;97867.88;2078138;28;20212;-60
2022/03/22 03:52:21;;;;;;;29.50;11.45;;;;;;;-0.36;70.18;97862.72;2079895;28;20208;-59
2022/03/22 03:53:23;;;;;;;24.20;12.15;;;;;;;-0.47;70.05;97853.34;2077506;28;20628;-59
2022/03/22 03:54:25;;;;;;;23.58;11.93;;;;;;;-0.39;69.89;97866.19;2077050;28;20201;-59
2022/03/22 03:55:26;;;;;;;26.40;12.60;;;;;;;-0.43;70.33;97872.22;2075485;28;20202;-59
2022/03/22 03:56:28;;;;;;;29.00;12.30;;;;;;;-0.41;70.03;97870.50;2078785;28;20202;-59
2022/03/22 03:57:29;;;;;;;26.58;11.00;;;;;;;-0.47;70.18;97868.78;2080643;28;20207;-60
2022/03/22 03:58:31;;;;;;;22.80;12.23;;;;;;;-0.36;70.06;97871.31;2079304;28;20206;-59
2022/03/22 03:59:34;;;;;;;23.48;11.93;;;;;;;-0.37;70.03;97873.88;2077661;28;20199;-59
2022/03/22 04:00:35;;;;;;;26.73;12.32;;;;;;;-0.43;70.40;97874.78;2076601;28;20228;-60
2022/03/22 04:01:37;;;;;;;18.45;11.45;;;;;;;-0.47;70.17;97878.22;2078750;28;20205;-60
2022/03/22 04:02:40;;;;;;;22.48;11.45;;;;;;;-0.54;70.95;97879.13;2080020;28;20283;-60
2022/03/22 04:03:42;;;;;;;19.60;11.90;;;;;;;-0.53;70.66;97873.09;2081012;28;20197;-59
2022/03/22 04:04:44;;;;;;;23.08;12.50;;;;;;;-0.51;70.56;97876.53;2079811;28;20204;-60
2022/03/22 04:05:45;;;;;;;22.90;12.13;;;;;;;-0.36;70.20;97875.59;2077477;28;20220;-59
2022/03/22 04:06:47;;;;;;;22.70;11.68;;;;;;;-0.38;69.49;97878.19;2077077;28;20205;-60
2022/03/22 04:07:49;;;;;;;26.42;13.00;;;;;;;-0.23;69.33;97872.09;2076867;28;20199;-60
2022/03/22 04:08:50;;;;;;;24.08;12.70;;;;;;;-0.33;69.57;97879.03;2076833;28;20280;-59
2022/03/22 04:09:56;;;;;;;28.88;11.48;;;;;;;-0.36;69.88;97878.19;2076902;28;20208;-60
2022/03/22 04:10:58;;;;;;;23.00;10.98;;;;;;;-0.31;69.91;97879.88;2075882;28;20233;-59
2022/03/22 04:11:59;;;;;;;24.55;12.63;;;;;;;-0.46;70.19;97875.63;2076433;28;20219;-59
2022/03/22 04:13:01;;;;;;;21.52;11.77;;;;;;;-0.54;70.31;97866.25;2078125;28;20532;-60
2022/03/22 04:14:02;;;;;;;25.75;13.30;;;;;;;-0.51;70.53;97879.97;2076795;28;20205;-59
2022/03/22 04:15:04;;;;;;;25.77;11.90;;;;;;;-0.50;70.22;97873.09;2078553;28;20577;-59
2022/03/22 04:16:06;;;;;;;20.95;11.80;;;;;;;-0.61;71.04;97871.44;2077129;28;20221;-60
2022/03/22 04:17:08;;;;;;;24.48;11.95;;;;;;;-0.60;70.51;97875.69;2078063;28;20201;-60
2022/03/22 04:18:09;;;;;;;19.50;11.40;;;;;;;-0.63;70.60;97880.00;2078773;28;20228;-60
2022/03/22 04:19:10;;;;;;;22.38;11.38;;;;;;;-0.62;70.73;97874.84;2078710;28;20201;-60
2022/03/22 04:20:12;;;;;;;28.67;12.23;;;;;;;-0.62;70.90;97874.84;2074747;28;20205;-60
2022/03/22 04:21:13;;;;;;;22.73;12.90;;;;;;;-0.68;70.88;97879.19;2077305;28;20214;-59
2022/03/22 04:22:16;;;;;;;24.83;12.05;;;;;;;-0.68;71.00;97869.75;2079232;28;20197;-60
2022/03/22 04:23:17;;;;;;;23.70;11.63;;;;;;;-0.65;71.36;97876.56;2077105;28;20202;-59
2022/03/22 04:24:19;;;;;;;20.63;11.30;;;;;;;-0.66;71.51;97874.88;2076933;28;20220;-60
2022/03/22 04:25:20;;;;;;;29.92;12.32;;;;;;;-0.67;71.20;97868.84;2077679;28;20202;-60
2022/03/22 04:26:22;;;;;;;22.85;11.60;;;;;;;-0.73;71.51;97871.47;2077151;28;20209;-59
2022/03/22 04:32:44;;;;;;;28.90;12.05;;;;;;;-0.66;71.14;97873.16;2078066;28;20199;-60
2022/03/22 04:33:46;;;;;;;24.48;12.07;;;;;;;-0.58;70.47;97873.13;2077413;28;20193;-59
2022/03/22 04:34:48;;;;;;;26.45;11.10;;;;;;;-0.61;70.77;97873.13;2075817;28;20204;-60
2022/03/22 04:35:50;;;;;;;22.67;12.35;;;;;;;-0.67;70.44;97871.44;2075021;28;20218;-59
2022/03/22 04:36:57;;;;;;;22.58;12.18;;;;;;;-0.69;70.29;97872.31;2075873;28;20193;-60
2022/03/22 04:37:59;;;;;;;27.05;12.35;;;;;;;-0.75;70.53;97870.63;2076325;28;20504;-59
2022/03/22 04:39:01;;;;;;;19.35;11.55;;;;;;;-0.78;70.57;97873.22;2077077;28;20201;-59
2022/03/22 04:40:03;;;;;;;20.20;12.27;;;;;;;-0.81;70.72;97876.63;2078455;28;20197;-59
2022/03/22 04:41:04;;;;;;;24.17;12.07;;;;;;;-0.82;70.48;97880.06;2080020;28;20233;-59
2022/03/22 04:42:06;;;;;;;22.20;10.95;;;;;;;-0.77;70.12;97874.06;2075807;28;20228;-60
2022/03/22 04:43:07;;;;;;;25.20;10.68;;;;;;;-0.79;70.48;97874.06;2075853;28;20199;-60
2022/03/22 04:44:09;;;;;;;26.13;11.95;;;;;;;-0.81;70.68;97878.34;2078119;28;20540;-59
2022/03/22 04:45:11;;;;;;;22.00;11.25;;;;;;;-0.85;70.67;97872.34;2076224;28;20522;-59
2022/03/22 04:46:18;;;;;;;24.70;10.73;;;;;;;-0.85;71.09;97871.50;2077837;28;20220;-59
2022/03/22 04:47:19;;;;;;;20.50;11.80;;;;;;;-0.75;70.69;97874.91;2075538;28;20631;-60
2022/03/22 04:48:21;;;;;;;19.23;11.18;;;;;;;-0.74;70.55;97872.34;2076923;28;20197;-59
2022/03/22 04:49:23;;;;;;;20.73;11.10;;;;;;;-0.72;70.60;97867.19;2076787;28;20206;-59
2022/03/22 04:50:25;;;;;;;18.83;10.65;;;;;;;-0.49;69.70;97874.78;2076115;28;20635;-59
2022/03/22 04:56:47;;;;;;;23.48;10.93;;;;;;;-0.71;70.26;97871.47;2078521;28;20198;-59
2022/03/22 04:57:48;;;;;;;27.48;11.52;;;;;;;-0.66;70.09;97872.31;2076368;28;20564;-60
2022/03/22 04:58:52;;;;;;;18.40;11.90;;;;;;;-0.62;70.31;97880.00;2077068;28;20194;-59
2022/03/22 04:59:54;;;;;;;21.75;11.75;;;;;;;-0.71;70.80;97879.19;2078274;28;20203;-60
2022/03/22 05:00:55;;;;;;;26.38;12.07;;;;;;;-0.72;70.87;97875.75;2077268;28;20233;-59
2022/03/22 05:01:59;;;;;;;28.40;11.48;;;;;;;-0.67;70.46;97881.72;2079811;28;20200;-59
2022/03/22 05:03:04;;;;;;;21.77;11.30;;;;;;;-0.67;70.60;97881.72;2079366;28;20250;-60
2022/03/22 05:04:06;;;;;;;21.67;11.23;;;;;;;-0.70;71.17;97886.91;2077530;28;20557;-59
2022/03/22 05:05:07;;;;;;;21.70;13.20;;;;;;;-0.78;71.26;97872.34;2078260;28;20581;-59
2022/03/22 05:06:28;;;;;;;24.30;12.35;;;;;;;-0.74;71.08;97886.94;2076775;28;20234;-60
2022/03/22 05:07:30;;;;;;;35.05;11.50;;;;;;;-0.75;71.03;97878.31;2076430;28;20219;-59
2022/03/22 05:08:32;;;;;;;28.30;12.02;;;;;;;-0.64;71.07;97886.88;2077484;28;20203;-59
2022/03/22 05:09:33;;;;;;;24.85;12.55;;;;;;;-0.69;71.04;97883.44;2078388;28;20192;-59
2022/03/22 05:10:36;;;;;;;24.83;13.15;;;;;;;-0.67;70.70;97881.72;2077299;28;20232;-57
2022/03/22 05:11:38;;;;;;;23.17;10.80;;;;;;;-0.66;70.66;97885.19;2077035;28;20199;-58